Time;durP1;ratioP1;P1;durP2;ratioP2;P2;SDS_P1;SDS_P2;PMS_P1;PMS_P2;Temp;Humidity;BMP_temperature;BMP_pressure;BME280_temperature;BME280_humidity;BME280_pressure;Samples;Min_cycle;Max_cycle;Signal;HPM_P1;HPM_P2
2022/04/21 00:00:39;;;;;;;5.60;4.43;;;;;;;;;;5048655;28;20464;-75
2022/04/21 00:03:08;;;;;;;4.30;3.90;;;;;;;;;;5050467;28;20452;-77
2022/04/21 00:05:35;;;;;;;3.63;3.03;;;;;;;;;;5050845;28;20810;-76
2022/04/21 00:08:04;;;;;;;4.30;3.80;;;;;;;;;;5051394;28;20448;-76
2022/04/21 00:10:31;;;;;;;6.57;3.47;;;;;;;;;;5049002;28;20491;-76
2022/04/21 00:12:58;;;;;;;4.63;3.50;;;;;;;;;;5053068;28;20493;-77
2022/04/21 00:15:26;;;;;;;6.90;3.20;;;;;;;;;;5052744;28;20433;-75
2022/04/21 00:17:54;;;;;;;4.20;3.80;;;;;;;;;;5051169;28;20436;-75
2022/04/21 00:20:22;;;;;;;5.03;3.47;;;;;;;;;;5049918;28;20433;-75
2022/04/21 00:25:31;;;;;;;4.57;3.50;;;;;;;;;;5053491;28;20429;-75
2022/04/21 00:27:58;;;;;;;4.67;3.50;;;;;;;;;;5054277;28;20938;-75
2022/04/21 00:30:26;;;;;;;4.20;3.30;;;;;;;;;;5054684;28;20469;-75
2022/04/21 00:32:53;;;;;;;3.60;3.20;;;;;;;;;;5052265;28;20833;-75
2022/04/21 00:35:20;;;;;;;4.60;2.73;;;;;;;;;;5056099;28;20452;-75
2022/04/21 00:37:49;;;;;;;4.17;3.40;;;;;;;;;;5056027;28;20441;-75
2022/04/21 00:40:18;;;;;;;2.97;2.70;;;;;;;;;;5052079;28;20440;-75
2022/04/21 00:42:45;;;;;;;5.33;3.60;;;;;;;;;;5049572;28;20902;-75
2022/04/21 00:45:13;;;;;;;3.40;3.10;;;;;;;;;;5051832;28;20532;-75
2022/04/21 00:47:43;;;;;;;3.70;3.00;;;;;;;;;;5052595;28;20448;-76
2022/04/21 00:50:11;;;;;;;3.27;3.03;;;;;;;;;;5053821;28;20473;-75
2022/04/21 00:52:39;;;;;;;3.90;2.90;;;;;;;;;;5053998;28;20476;-76
2022/04/21 00:55:08;;;;;;;3.20;2.73;;;;;;;;;;5053714;28;20810;-76
2022/04/21 00:57:35;;;;;;;4.10;3.03;;;;;;;;;;5053716;28;20461;-75
2022/04/21 01:00:03;;;;;;;3.80;3.10;;;;;;;;;;5055613;28;20450;-76
2022/04/21 01:05:12;;;;;;;3.67;3.37;;;;;;;;;;5048616;28;20437;-76
2022/04/21 01:07:39;;;;;;;3.53;3.20;;;;;;;;;;5051495;28;20441;-76
2022/04/21 01:10:08;;;;;;;3.60;2.97;;;;;;;;;;5052655;28;20583;-77
2022/04/21 01:12:35;;;;;;;4.03;3.50;;;;;;;;;;5053484;28;20440;-76
2022/04/21 01:15:02;;;;;;;4.30;3.50;;;;;;;;;;5053719;28;20846;-75
2022/04/21 01:17:33;;;;;;;4.00;3.57;;;;;;;;;;5053391;28;20802;-77
2022/04/21 01:20:00;;;;;;;5.50;3.70;;;;;;;;;;5054694;28;20448;-77
2022/04/21 01:22:28;;;;;;;3.53;3.20;;;;;;;;;;5055197;28;20445;-74
2022/04/21 01:24:56;;;;;;;6.40;3.30;;;;;;;;;;5050564;28;20441;-75
2022/04/21 01:27:24;;;;;;;3.87;3.23;;;;;;;;;;5048596;28;20432;-76
2022/04/21 01:29:51;;;;;;;5.30;3.63;;;;;;;;;;5049564;28;20437;-76
2022/04/21 01:32:18;;;;;;;5.70;3.70;;;;;;;;;;5052779;28;20464;-77
2022/04/21 01:34:45;;;;;;;5.30;3.70;;;;;;;;;;5052696;28;20496;-77
2022/04/21 01:42:36;;;;;;;3.93;3.40;;;;;;;;;;5053950;28;20767;-76
2022/04/21 01:45:06;;;;;;;4.97;3.40;;;;;;;;;;5054658;28;20445;-76
2022/04/21 01:47:33;;;;;;;4.50;2.90;;;;;;;;;;5051365;28;20561;-76
2022/04/21 01:50:07;;;;;;;5.17;3.90;;;;;;;;;;5047977;28;20442;-76
2022/04/21 01:52:34;;;;;;;3.50;3.20;;;;;;;;;;5050421;28;20443;-75
2022/04/21 01:55:02;;;;;;;3.63;3.33;;;;;;;;;;5052352;28;20445;-76
2022/04/21 01:57:29;;;;;;;3.80;3.20;;;;;;;;;;5052376;28;20495;-76
2022/04/21 01:59:57;;;;;;;3.87;3.53;;;;;;;;;;5052708;28;20441;-77
2022/04/21 02:02:24;;;;;;;5.00;4.37;;;;;;;;;;5052378;28;20464;-75
2022/04/21 02:04:51;;;;;;;6.50;3.33;;;;;;;;;;5053549;28;20445;-76
2022/04/21 02:07:18;;;;;;;4.03;3.63;;;;;;;;;;5054362;28;20433;-75
2022/04/21 02:09:45;;;;;;;4.53;3.50;;;;;;;;;;5051275;28;20469;-75
2022/04/21 02:12:14;;;;;;;5.27;3.63;;;;;;;;;;5047705;28;20453;-75
2022/04/21 02:14:41;;;;;;;6.93;3.50;;;;;;;;;;5049131;28;20484;-75
2022/04/21 02:17:09;;;;;;;4.23;3.67;;;;;;;;;;5051814;28;20503;-75
2022/04/21 02:19:36;;;;;;;4.33;3.57;;;;;;;;;;5052002;28;20774;-75
2022/04/21 02:22:03;;;;;;;4.13;3.73;;;;;;;;;;5052191;28;20461;-75
2022/04/21 02:24:30;;;;;;;4.27;3.87;;;;;;;;;;5052378;28;20448;-75
2022/04/21 02:26:57;;;;;;;4.37;3.97;;;;;;;;;;5052766;28;20461;-76
2022/04/21 02:29:26;;;;;;;4.90;3.53;;;;;;;;;;5053127;28;20796;-77
2022/04/21 02:31:53;;;;;;;4.63;3.10;;;;;;;;;;5047458;28;20806;-76
2022/04/21 02:34:20;;;;;;;4.33;3.30;;;;;;;;;;5048113;28;20477;-75
2022/04/21 02:36:47;;;;;;;4.40;3.77;;;;;;;;;;5051030;28;20437;-75
2022/04/21 02:39:14;;;;;;;3.50;3.20;;;;;;;;;;5050852;28;20489;-76
2022/04/21 02:41:42;;;;;;;4.23;3.70;;;;;;;;;;5051920;28;20472;-75
2022/04/21 02:44:09;;;;;;;4.03;3.63;;;;;;;;;;5051870;28;20448;-76
2022/04/21 02:46:39;;;;;;;4.47;3.70;;;;;;;;;;5051961;28;20437;-75
2022/04/21 02:49:06;;;;;;;5.20;3.70;;;;;;;;;;5053558;28;20528;-75
2022/04/21 02:51:35;;;;;;;4.53;3.60;;;;;;;;;;5053507;28;20552;-76
2022/04/21 02:59:25;;;;;;;3.43;3.13;;;;;;;;;;5050481;28;20808;-76
2022/04/21 03:01:54;;;;;;;4.47;3.67;;;;;;;;;;5051013;28;20462;-76
2022/04/21 03:04:21;;;;;;;3.37;3.07;;;;;;;;;;5051578;28;20926;-75
2022/04/21 03:06:48;;;;;;;3.90;3.50;;;;;;;;;;5051483;28;20437;-76
2022/04/21 03:09:16;;;;;;;5.20;3.70;;;;;;;;;;5051371;28;20472;-75
2022/04/21 03:11:43;;;;;;;4.10;3.70;;;;;;;;;;5053261;28;20555;-75
2022/04/21 03:14:10;;;;;;;3.83;3.43;;;;;;;;;;5053214;28;20489;-76
2022/04/21 03:16:37;;;;;;;5.43;4.10;;;;;;;;;;5047617;28;20436;-76
2022/04/21 03:19:05;;;;;;;4.77;4.10;;;;;;;;;;5046727;28;20437;-75
2022/04/21 03:24:21;;;;;;;3.77;3.47;;;;;;;;;;5050526;28;20436;-75
2022/04/21 03:26:48;;;;;;;3.73;3.43;;;;;;;;;;5048610;28;20460;-76
2022/04/21 03:29:15;;;;;;;4.00;3.60;;;;;;;;;;5045927;28;20448;-75
2022/04/21 03:31:43;;;;;;;5.53;3.83;;;;;;;;;;5051316;28;20469;-76
2022/04/21 03:34:13;;;;;;;8.23;3.90;;;;;;;;;;5052890;28;20546;-75
2022/04/21 03:36:44;;;;;;;4.00;3.60;;;;;;;;;;5051978;28;20437;-75
2022/04/21 03:39:11;;;;;;;4.90;3.55;;;;;;;;;;5047395;28;20524;-77
2022/04/21 03:41:38;;;;;;;3.67;3.37;;;;;;;;;;5046759;28;20806;-76
2022/04/21 03:44:05;;;;;;;3.17;2.87;;;;;;;;;;5050269;28;21038;-76
2022/04/21 03:46:32;;;;;;;4.07;3.70;;;;;;;;;;5050427;28;20439;-75
2022/04/21 03:49:00;;;;;;;3.77;3.47;;;;;;;;;;5051289;28;20441;-75
2022/04/21 03:51:28;;;;;;;3.40;3.10;;;;;;;;;;5052160;28;20822;-76
2022/04/21 03:53:55;;;;;;;3.55;3.25;;;;;;;;;;5053488;28;20237;-75
2022/04/21 03:56:23;;;;;;;4.32;3.30;;;;;;;;;;5056699;28;20218;-76
2022/04/21 03:58:50;;;;;;;4.10;3.10;;;;;;;;;;5055566;28;20194;-76
2022/04/21 04:01:18;;;;;;;3.45;3.00;;;;;;;;;;5052130;28;20229;-77
2022/04/21 04:03:45;;;;;;;3.70;3.10;;;;;;;;;;5050532;28;20187;-75
2022/04/21 04:11:36;;;;;;;5.28;3.78;;;;;;;;;;5053554;28;20284;-75
2022/04/21 04:14:05;;;;;;;3.40;3.10;;;;;;;;;;5055563;28;20226;-77
2022/04/21 04:16:34;;;;;;;4.10;3.45;;;;;;;;;;5054479;28;20572;-76
2022/04/21 04:19:03;;;;;;;3.67;3.38;;;;;;;;;;5056466;28;20264;-75
2022/04/21 04:21:31;;;;;;;5.82;3.20;;;;;;;;;;5056178;28;20214;-76
2022/04/21 04:23:59;;;;;;;4.32;3.70;;;;;;;;;;5051283;28;20587;-76
2022/04/21 04:26:26;;;;;;;3.72;3.35;;;;;;;;;;5050161;28;20191;-75
2022/04/21 04:28:54;;;;;;;5.07;3.75;;;;;;;;;;5053198;28;20205;-76
2022/04/21 04:31:21;;;;;;;5.72;3.38;;;;;;;;;;5053752;28;20222;-75
2022/04/21 04:33:48;;;;;;;3.50;3.20;;;;;;;;;;5054221;28;20222;-76
2022/04/21 04:36:16;;;;;;;3.88;3.47;;;;;;;;;;5054600;28;20301;-75
2022/04/21 04:38:44;;;;;;;4.70;3.35;;;;;;;;;;5053259;28;20202;-77
2022/04/21 04:43:54;;;;;;;4.20;3.80;;;;;;;;;;5055934;28;20521;-75
2022/04/21 04:49:04;;;;;;;4.57;3.67;;;;;;;;;;5048286;28;20663;-76
2022/04/21 04:51:31;;;;;;;3.87;3.33;;;;;;;;;;5051438;28;20297;-76
2022/04/21 04:53:58;;;;;;;3.22;2.97;;;;;;;;;;5053211;28;20481;-75
2022/04/21 04:56:28;;;;;;;3.50;3.20;;;;;;;;;;5053922;28;20205;-75
2022/04/21 04:58:55;;;;;;;3.45;3.15;;;;;;;;;;5054101;28;20195;-76
2022/04/21 05:01:27;;;;;;;3.73;3.40;;;;;;;;;;5052868;28;20215;-75
2022/04/21 05:03:55;;;;;;;3.80;3.50;;;;;;;;;;5055305;28;20445;-77
2022/04/21 05:06:22;;;;;;;4.80;3.97;;;;;;;;;;5055370;28;20441;-76
2022/04/21 05:08:49;;;;;;;4.83;3.83;;;;;;;;;;5051696;28;21793;-76
2022/04/21 05:11:16;;;;;;;4.20;3.80;;;;;;;;;;5049078;28;20453;-78
2022/04/21 05:13:45;;;;;;;4.30;3.37;;;;;;;;;;5051253;28;20445;-77
2022/04/21 05:16:12;;;;;;;3.97;3.10;;;;;;;;;;5052903;28;20441;-76
2022/04/21 05:18:39;;;;;;;4.13;3.73;;;;;;;;;;5053441;28;20941;-76
2022/04/21 05:21:07;;;;;;;4.80;3.80;;;;;;;;;;5053478;28;20817;-77
2022/04/21 05:23:35;;;;;;;4.47;3.60;;;;;;;;;;5053449;28;20445;-76
2022/04/21 05:26:02;;;;;;;3.70;3.37;;;;;;;;;;5054255;28;20457;-75
2022/04/21 05:28:30;;;;;;;6.60;4.23;;;;;;;;;;5054737;28;20445;-75
2022/04/21 05:30:58;;;;;;;6.27;4.77;;;;;;;;;;5052297;28;20461;-76
2022/04/21 05:33:26;;;;;;;4.83;4.13;;;;;;;;;;5046318;28;20531;-76
2022/04/21 05:35:54;;;;;;;4.10;3.70;;;;;;;;;;5048119;28;20487;-76
2022/04/21 05:38:22;;;;;;;5.23;3.97;;;;;;;;;;5050554;28;20568;-76
2022/04/21 05:40:49;;;;;;;4.97;3.77;;;;;;;;;;5049309;28;20457;-77
2022/04/21 05:43:18;;;;;;;5.10;4.30;;;;;;;;;;5050713;28;20448;-75
2022/04/21 05:45:45;;;;;;;4.23;3.73;;;;;;;;;;5051632;28;20461;-76
2022/04/21 05:48:15;;;;;;;5.70;3.83;;;;;;;;;;5050921;28;20441;-76
2022/04/21 05:50:43;;;;;;;4.30;3.80;;;;;;;;;;5052502;28;20452;-77
2022/04/21 05:53:12;;;;;;;4.47;4.07;;;;;;;;;;5050467;28;21001;-75
2022/04/21 05:55:39;;;;;;;6.20;4.13;;;;;;;;;;5046278;28;20484;-76
2022/04/21 05:58:07;;;;;;;5.77;4.40;;;;;;;;;;5047576;28;20521;-75
2022/04/21 06:00:34;;;;;;;4.63;4.00;;;;;;;;;;5050244;28;20790;-76
2022/04/21 06:03:01;;;;;;;5.93;4.80;;;;;;;;;;5050456;28;20527;-75
2022/04/21 06:05:29;;;;;;;5.20;4.10;;;;;;;;;;5050705;28;20439;-77
2022/04/21 06:07:57;;;;;;;11.53;4.77;;;;;;;;;;5052051;28;20434;-76
2022/04/21 06:10:24;;;;;;;4.10;3.70;;;;;;;;;;5051890;28;20556;-77
2022/04/21 06:12:51;;;;;;;7.20;4.10;;;;;;;;;;5054227;28;20441;-76
2022/04/21 06:15:18;;;;;;;5.60;4.40;;;;;;;;;;5052095;28;21065;-77
2022/04/21 06:17:46;;;;;;;5.30;4.40;;;;;;;;;;5047962;28;20438;-77
2022/04/21 06:20:13;;;;;;;6.53;4.40;;;;;;;;;;5048427;28;20934;-77
2022/04/21 06:22:41;;;;;;;6.37;4.20;;;;;;;;;;5051524;28;20425;-78
2022/04/21 06:25:09;;;;;;;5.37;4.47;;;;;;;;;;5051668;28;20441;-77
2022/04/21 06:27:36;;;;;;;4.80;4.30;;;;;;;;;;5052024;28;20779;-77
2022/04/21 06:30:03;;;;;;;6.93;4.93;;;;;;;;;;5052209;28;20441;-77
2022/04/21 06:32:31;;;;;;;4.63;4.20;;;;;;;;;;5051534;28;20445;-77
2022/04/21 06:34:58;;;;;;;6.17;4.73;;;;;;;;;;5052328;28;20480;-77
2022/04/21 06:37:25;;;;;;;5.50;5.00;;;;;;;;;;5053043;28;20527;-76
2022/04/21 06:39:53;;;;;;;5.23;4.63;;;;;;;;;;5047482;28;20429;-76
2022/04/21 06:42:21;;;;;;;5.10;4.10;;;;;;;;;;5047454;28;20447;-77
2022/04/21 06:50:10;;;;;;;5.10;4.60;;;;;;;;;;5050399;28;20424;-76
2022/04/21 06:52:37;;;;;;;7.07;4.73;;;;;;;;;;5051823;28;20574;-76
2022/04/21 06:55:06;;;;;;;9.40;5.33;;;;;;;;;;5051917;28;20502;-76
2022/04/21 06:57:33;;;;;;;6.43;5.33;;;;;;;;;;5052333;28;20463;-75
2022/04/21 07:00:00;;;;;;;7.97;4.30;;;;;;;;;;5051728;28;20437;-75
2022/04/21 07:02:28;;;;;;;5.67;5.00;;;;;;;;;;5045899;28;21127;-74
2022/04/21 07:04:55;;;;;;;12.27;4.87;;;;;;;;;;5047365;28;20411;-75
2022/04/21 07:07:22;;;;;;;5.27;4.43;;;;;;;;;;5048969;28;20422;-75
2022/04/21 07:09:49;;;;;;;7.33;4.63;;;;;;;;;;5049856;28;20447;-74
2022/04/21 07:12:18;;;;;;;7.80;4.90;;;;;;;;;;5050910;28;20468;-74
2022/04/21 07:14:45;;;;;;;7.77;4.40;;;;;;;;;;5051091;28;20454;-74
2022/04/21 07:17:12;;;;;;;4.23;3.80;;;;;;;;;;5051704;28;20487;-74
2022/04/21 07:19:39;;;;;;;3.40;3.10;;;;;;;;;;5053280;28;20448;-74
2022/04/21 07:22:06;;;;;;;6.20;4.00;;;;;;;;;;5053208;28;20446;-74
2022/04/21 07:24:33;;;;;;;3.83;3.43;;;;;;;;;;5048179;28;20403;-75
2022/04/21 07:27:01;;;;;;;6.30;3.53;;;;;;;;;;5050107;28;20950;-74
2022/04/21 07:29:30;;;;;;;6.43;4.57;;;;;;;;;;5054202;28;20443;-75
2022/04/21 07:31:57;;;;;;;20.93;18.50;;;;;;;;;;5054860;28;20468;-75
2022/04/21 07:34:27;;;;;;;131.63;96.97;;;;;;;;;;5055221;28;20879;-73
2022/04/21 07:36:54;;;;;;;77.37;45.73;;;;;;;;;;5054366;28;20455;-75
2022/04/21 07:39:21;;;;;;;11.60;6.90;;;;;;;;;;5054875;28;20469;-74
2022/04/21 07:41:48;;;;;;;5.57;4.10;;;;;;;;;;5056821;28;20464;-75
2022/04/21 07:44:16;;;;;;;5.00;4.33;;;;;;;;;;5057071;28;20955;-75
2022/04/21 07:46:44;;;;;;;4.50;4.10;;;;;;;;;;5052892;28;20444;-75
2022/04/21 07:53:12;;;;;;;6.57;4.03;;;;;;;;;;5052392;28;20502;-75
2022/04/21 07:54:38;;;;;;;7.20;4.13;;;;;;;;;;5052538;28;20465;-74
2022/04/21 07:57:06;;;;;;;4.50;3.47;;;;;;;;;;5055113;28;20811;-76
2022/04/21 07:59:33;;;;;;;5.13;3.63;;;;;;;;;;5055284;28;20452;-75
2022/04/21 08:02:01;;;;;;;3.67;3.37;;;;;;;;;;5054449;28;20461;-74
2022/04/21 08:04:29;;;;;;;6.83;3.23;;;;;;;;;;5056327;28;20805;-74
2022/04/21 08:06:56;;;;;;;3.97;3.50;;;;;;;;;;5055686;28;20444;-76
2022/04/21 08:09:23;;;;;;;6.43;4.10;;;;;;;;;;5049994;28;20456;-75
2022/04/21 08:11:50;;;;;;;4.73;3.30;;;;;;;;;;5050553;28;20463;-78
2022/04/21 08:14:18;;;;;;;5.90;3.60;;;;;;;;;;5053663;28;20448;-79
2022/04/21 08:16:45;;;;;;;7.50;3.90;;;;;;;;;;5053796;28;20488;-76
2022/04/21 08:19:13;;;;;;;6.90;3.10;;;;;;;;;;5054514;28;20448;-81
2022/04/21 08:21:42;;;;;;;6.00;4.10;;;;;;;;;;5054395;28;20474;-81
2022/04/21 08:34:55;;;;;;;5.10;3.20;;;;;;;;;;5050319;28;20425;-77
2022/04/21 08:37:22;;;;;;;3.43;2.83;;;;;;;;;;5052461;28;20425;-77
2022/04/21 08:39:49;;;;;;;5.90;3.10;;;;;;;;;;5053839;28;20815;-79
2022/04/21 08:42:17;;;;;;;4.63;3.20;;;;;;;;;;5054112;28;20460;-75
2022/04/21 08:44:45;;;;;;;4.77;2.80;;;;;;;;;;5053007;28;20406;-74
2022/04/21 08:47:14;;;;;;;3.60;3.30;;;;;;;;;;5052457;28;20422;-75
2022/04/21 08:49:44;;;;;;;2.90;2.50;;;;;;;;;;5054067;28;20453;-77
2022/04/21 08:52:13;;;;;;;2.53;2.33;;;;;;;;;;5053749;28;20821;-78
2022/04/21 08:54:41;;;;;;;4.83;3.20;;;;;;;;;;5048855;28;20440;-78
2022/04/21 08:57:08;;;;;;;5.10;3.17;;;;;;;;;;5049565;28;20454;-78
2022/04/21 08:59:35;;;;;;;3.40;2.63;;;;;;;;;;5053028;28;20726;-78
2022/04/21 09:02:03;;;;;;;2.73;2.23;;;;;;;;;;5053021;28;20572;-76
2022/04/21 09:04:30;;;;;;;3.13;2.70;;;;;;;;;;5053788;28;20421;-76
2022/04/21 09:06:57;;;;;;;3.00;2.37;;;;;;;;;;5054129;28;20421;-76
2022/04/21 09:09:26;;;;;;;2.50;2.10;;;;;;;;;;5052942;28;20495;-77
2022/04/21 09:11:54;;;;;;;3.73;2.37;;;;;;;;;;5055413;28;20464;-76
2022/04/21 09:14:21;;;;;;;3.57;2.53;;;;;;;;;;5054598;28;20758;-80
2022/04/21 09:16:49;;;;;;;5.90;3.13;;;;;;;;;;5049603;28;20458;-78
2022/04/21 09:19:16;;;;;;;3.00;2.60;;;;;;;;;;5047207;28;20960;-75
2022/04/21 09:21:43;;;;;;;3.17;2.33;;;;;;;;;;5051593;28;20467;-78
2022/04/21 09:24:25;;;;;;;3.27;2.20;;;;;;;;;;5052905;28;20444;-78
2022/04/21 09:26:54;;;;;;;2.13;1.93;;;;;;;;;;5051017;28;20497;-77
2022/04/21 09:29:28;;;;;;;3.60;2.23;;;;;;;;;;5053009;28;20426;-79
2022/04/21 09:31:58;;;;;;;2.70;1.77;;;;;;;;;;5052236;28;20491;-80
2022/04/21 09:34:25;;;;;;;3.87;2.20;;;;;;;;;;5053638;28;20526;-77
2022/04/21 09:36:55;;;;;;;2.60;2.00;;;;;;;;;;5054609;28;20816;-79
2022/04/21 09:39:23;;;;;;;2.80;2.53;;;;;;;;;;5051889;28;20420;-78
2022/04/21 09:41:54;;;;;;;3.43;2.60;;;;;;;;;;5048333;28;20458;-78
2022/04/21 09:47:04;;;;;;;3.00;2.00;;;;;;;;;;5052123;28;20437;-79
2022/04/21 09:49:34;;;;;;;2.70;2.30;;;;;;;;;;5051948;28;21044;-78
2022/04/21 09:52:02;;;;;;;3.30;2.67;;;;;;;;;;5052992;28;20472;-75
2022/04/21 09:54:29;;;;;;;3.10;2.20;;;;;;;;;;5052741;28;20970;-76
2022/04/21 09:56:58;;;;;;;4.90;2.73;;;;;;;;;;5054019;28;20465;-75
2022/04/21 09:59:26;;;;;;;2.80;2.37;;;;;;;;;;5054260;28;20451;-75
2022/04/21 10:01:53;;;;;;;3.50;2.60;;;;;;;;;;5051961;28;20449;-76
2022/04/21 10:04:21;;;;;;;4.70;2.50;;;;;;;;;;5048007;28;20439;-77
2022/04/21 10:06:49;;;;;;;2.93;2.60;;;;;;;;;;5049203;28;20448;-76
2022/04/21 10:09:17;;;;;;;4.53;2.33;;;;;;;;;;5051746;28;20976;-78
2022/04/21 10:11:44;;;;;;;5.77;2.73;;;;;;;;;;5050697;28;20472;-76
2022/04/21 10:14:15;;;;;;;2.60;2.13;;;;;;;;;;5052157;28;20453;-77
2022/04/21 10:16:43;;;;;;;2.50;2.30;;;;;;;;;;5052573;28;20830;-76
2022/04/21 10:19:11;;;;;;;3.13;2.07;;;;;;;;;;5053072;28;20448;-77
2022/04/21 10:21:42;;;;;;;3.20;2.20;;;;;;;;;;5054010;28;20533;-76
2022/04/21 10:24:09;;;;;;;2.80;2.50;;;;;;;;;;5052128;28;20527;-75
2022/04/21 10:26:37;;;;;;;3.90;2.03;;;;;;;;;;5047463;28;20437;-77
2022/04/21 10:29:13;;;;;;;2.90;2.50;;;;;;;;;;5047310;28;20945;-77
2022/04/21 10:31:46;;;;;;;2.80;2.10;;;;;;;;;;5051662;28;20780;-75
2022/04/21 10:34:28;;;;;;;3.67;2.60;;;;;;;;;;5051774;28;20437;-76
2022/04/21 10:37:06;;;;;;;2.50;2.30;;;;;;;;;;5050479;28;20476;-77
2022/04/21 10:39:33;;;;;;;2.50;2.03;;;;;;;;;;5052043;28;20448;-78
2022/04/21 10:42:08;;;;;;;2.90;2.37;;;;;;;;;;5052758;28;20539;-77
2022/04/21 10:44:43;;;;;;;2.93;2.60;;;;;;;;;;5053814;28;20934;-76
2022/04/21 10:47:25;;;;;;;3.30;2.20;;;;;;;;;;5051255;28;20910;-77
2022/04/21 10:49:56;;;;;;;2.70;1.90;;;;;;;;;;5047017;28;20449;-79
2022/04/21 10:58:32;;;;;;;2.20;2.00;;;;;;;;;;5051333;28;20461;-76
2022/04/21 11:01:14;;;;;;;2.13;1.70;;;;;;;;;;5050633;28;20471;-75
2022/04/21 11:03:43;;;;;;;2.20;2.00;;;;;;;;;;5050854;28;20455;-75
2022/04/21 11:06:11;;;;;;;3.67;2.10;;;;;;;;;;5053225;28;20445;-79
2022/04/21 11:08:38;;;;;;;2.70;2.17;;;;;;;;;;5052340;28;20452;-77
2022/04/21 11:11:06;;;;;;;2.20;1.90;;;;;;;;;;5045585;28;20484;-77
2022/04/21 11:13:42;;;;;;;3.70;2.30;;;;;;;;;;5048197;28;20434;-77
2022/04/21 11:16:09;;;;;;;2.50;1.93;;;;;;;;;;5051265;28;20559;-78
2022/04/21 11:18:36;;;;;;;2.80;2.60;;;;;;;;;;5050927;28;20437;-77
2022/04/21 11:21:18;;;;;;;2.73;2.47;;;;;;;;;;5051456;28;20461;-78
2022/04/21 11:26:42;;;;;;;3.03;2.60;;;;;;;;;;5164649;27;20305;-77
2022/04/21 11:29:09;;;;;;;2.83;2.20;;;;;;;;;;5146089;27;20438;-74
2022/04/21 11:31:36;;;;;;;3.93;2.40;;;;;;;;;;5147795;27;20455;-75
2022/04/21 11:34:03;;;;;;;4.67;2.60;;;;;;;;;;5150392;27;20437;-76
2022/04/21 11:36:40;;;;;;;4.70;2.40;;;;;;;;;;5150376;27;20441;-74
2022/04/21 11:39:08;;;;;;;2.67;2.47;;;;;;;;;;5150508;27;20444;-75
2022/04/21 11:41:35;;;;;;;3.60;2.40;;;;;;;;;;5150348;27;20453;-75
2022/04/21 11:44:04;;;;;;;2.57;2.30;;;;;;;;;;5151369;27;20467;-74
2022/04/21 11:46:31;;;;;;;2.40;2.17;;;;;;;;;;5152118;27;20484;-76
2022/04/21 11:49:00;;;;;;;3.30;2.27;;;;;;;;;;5150085;27;20433;-75
2022/04/21 11:51:28;;;;;;;3.53;2.67;;;;;;;;;;5144395;27;20449;-76
2022/04/21 11:53:55;;;;;;;4.80;2.30;;;;;;;;;;5146749;27;20429;-76
2022/04/21 11:56:22;;;;;;;3.03;2.70;;;;;;;;;;5149963;27;20537;-76
2022/04/21 11:58:49;;;;;;;5.03;3.50;;;;;;;;;;5149919;27;20485;-75
2022/04/21 12:06:41;;;;;;;3.87;2.80;;;;;;;;;;5150334;27;20484;-76
2022/04/21 12:09:09;;;;;;;3.33;2.70;;;;;;;;;;5151757;27;20412;-77
2022/04/21 12:11:37;;;;;;;3.90;2.93;;;;;;;;;;5149520;27;20453;-77
2022/04/21 12:14:04;;;;;;;5.17;3.23;;;;;;;;;;5144784;27;20940;-76
2022/04/21 12:16:36;;;;;;;3.23;2.50;;;;;;;;;;5146647;27;20520;-76
2022/04/21 12:19:11;;;;;;;4.83;2.73;;;;;;;;;;5149287;27;20527;-76
2022/04/21 12:21:38;;;;;;;5.83;3.00;;;;;;;;;;5149374;27;20457;-77
2022/04/21 12:24:14;;;;;;;3.30;3.00;;;;;;;;;;5149741;27;20960;-75
2022/04/21 12:26:48;;;;;;;4.67;2.83;;;;;;;;;;5149580;27;20484;-77
2022/04/21 12:29:15;;;;;;;4.63;3.37;;;;;;;;;;5150234;27;20496;-77
2022/04/21 12:31:45;;;;;;;7.20;2.70;;;;;;;;;;5151188;27;20456;-76
2022/04/21 12:34:13;;;;;;;4.07;2.70;;;;;;;;;;5148716;27;21013;-76
2022/04/21 12:36:50;;;;;;;2.90;2.60;;;;;;;;;;5138487;27;20437;-78
2022/04/21 12:39:18;;;;;;;3.40;3.00;;;;;;;;;;5132705;27;20436;-75
2022/04/21 12:41:45;;;;;;;4.80;2.77;;;;;;;;;;5135129;27;20510;-76
2022/04/21 12:44:13;;;;;;;3.23;2.67;;;;;;;;;;5134955;27;20797;-75
2022/04/21 12:46:40;;;;;;;5.27;2.80;;;;;;;;;;5134970;27;20488;-75
2022/04/21 12:49:09;;;;;;;2.70;2.50;;;;;;;;;;5134728;27;20849;-76
2022/04/21 12:51:36;;;;;;;3.47;2.50;;;;;;;;;;5135475;27;20500;-75
2022/04/21 12:54:03;;;;;;;2.97;1.77;;;;;;;;;;5137090;27;20934;-75
2022/04/21 12:56:33;;;;;;;3.30;2.10;;;;;;;;;;5135586;27;20436;-76
2022/04/21 12:59:00;;;;;;;3.00;2.30;;;;;;;;;;5129657;27;20429;-75
2022/04/21 13:01:35;;;;;;;4.37;2.70;;;;;;;;;;5130454;27;20457;-75
2022/04/21 13:04:02;;;;;;;2.50;2.30;;;;;;;;;;5134598;27;20943;-75
2022/04/21 13:06:32;;;;;;;4.80;2.83;;;;;;;;;;5134955;27;20485;-75
2022/04/21 13:08:59;;;;;;;4.33;2.97;;;;;;;;;;5133413;27;20460;-76
2022/04/21 13:11:26;;;;;;;6.30;2.60;;;;;;;;;;5135315;27;20460;-76
2022/04/21 13:13:54;;;;;;;4.03;2.60;;;;;;;;;;5135230;27;20446;-76
2022/04/21 13:16:21;;;;;;;4.53;2.53;;;;;;;;;;5136881;27;20459;-75
2022/04/21 13:18:48;;;;;;;3.73;2.27;;;;;;;;;;5135266;27;20429;-76
2022/04/21 13:23:58;;;;;;;2.90;2.70;;;;;;;;;;5130791;27;20424;-76
2022/04/21 13:26:28;;;;;;;3.03;2.47;;;;;;;;;;5133869;27;20487;-75
2022/04/21 13:28:56;;;;;;;4.13;2.43;;;;;;;;;;5134320;27;20423;-75
2022/04/21 13:34:05;;;;;;;2.53;2.33;;;;;;;;;;5134211;27;20431;-76
2022/04/21 13:36:32;;;;;;;2.70;2.50;;;;;;;;;;5135003;27;20429;-76
2022/04/21 13:39:00;;;;;;;3.00;2.17;;;;;;;;;;5136394;27;20438;-75
2022/04/21 13:41:28;;;;;;;2.87;2.40;;;;;;;;;;5133699;27;20481;-76
2022/04/21 13:43:55;;;;;;;2.93;2.60;;;;;;;;;;5129688;27;20409;-75
2022/04/21 13:46:24;;;;;;;5.20;2.90;;;;;;;;;;5130989;27;20479;-75
2022/04/21 13:48:51;;;;;;;3.23;2.43;;;;;;;;;;5132885;27;20437;-75
2022/04/21 13:51:18;;;;;;;8.50;2.57;;;;;;;;;;5133572;27;20979;-75
2022/04/21 13:53:45;;;;;;;7.03;2.43;;;;;;;;;;5133846;27;20421;-76
2022/04/21 13:56:14;;;;;;;2.03;1.87;;;;;;;;;;5134300;27;20450;-75
2022/04/21 13:58:41;;;;;;;3.43;1.93;;;;;;;;;;5134532;27;20433;-75
2022/04/21 14:01:08;;;;;;;3.20;2.10;;;;;;;;;;5135531;27;20958;-76
2022/04/21 14:03:36;;;;;;;4.43;2.33;;;;;;;;;;5134323;27;20432;-76
2022/04/21 14:06:03;;;;;;;3.03;2.00;;;;;;;;;;5129111;27;20473;-76
2022/04/21 14:08:31;;;;;;;2.23;2.00;;;;;;;;;;5130178;27;20441;-76
2022/04/21 14:10:58;;;;;;;3.93;2.20;;;;;;;;;;5133281;27;20444;-76
2022/04/21 14:13:26;;;;;;;2.13;1.90;;;;;;;;;;5133183;27;20455;-75
2022/04/21 14:15:53;;;;;;;4.40;2.30;;;;;;;;;;5133446;27;20452;-75
2022/04/21 14:18:20;;;;;;;2.17;1.80;;;;;;;;;;5133913;27;20434;-75
2022/04/21 14:20:48;;;;;;;2.20;2.00;;;;;;;;;;5133788;27;20560;-75
2022/04/21 14:23:15;;;;;;;2.50;2.23;;;;;;;;;;5135401;27;20866;-75
2022/04/21 14:25:42;;;;;;;2.67;2.00;;;;;;;;;;5133033;27;20556;-76
2022/04/21 14:28:10;;;;;;;4.60;2.80;;;;;;;;;;5128555;27;20437;-75
2022/04/21 14:30:38;;;;;;;3.20;2.07;;;;;;;;;;5129972;27;20452;-75
2022/04/21 14:33:06;;;;;;;2.30;2.00;;;;;;;;;;5133008;27;20453;-76
2022/04/21 14:35:33;;;;;;;6.67;2.10;;;;;;;;;;5132928;27;20442;-76
2022/04/21 14:46:05;;;;;;;3.87;2.00;;;;;;;;;;5134690;27;20546;-75
2022/04/21 14:48:32;;;;;;;3.43;2.60;;;;;;;;;;5131084;27;20433;-75
2022/04/21 14:51:00;;;;;;;4.03;2.20;;;;;;;;;;5128296;27;20555;-75
2022/04/21 14:53:27;;;;;;;7.63;2.30;;;;;;;;;;5130205;27;20440;-76
2022/04/21 14:55:55;;;;;;;2.30;2.10;;;;;;;;;;5132396;27;20450;-76
2022/04/21 14:58:22;;;;;;;5.20;2.70;;;;;;;;;;5132362;27;20760;-76
2022/04/21 15:00:49;;;;;;;3.50;3.20;;;;;;;;;;5132211;27;20442;-76
2022/04/21 15:03:18;;;;;;;3.27;2.97;;;;;;;;;;5133024;27;20409;-76
2022/04/21 15:05:45;;;;;;;4.80;2.87;;;;;;;;;;5133526;27;20478;-75
2022/04/21 15:08:12;;;;;;;4.90;2.80;;;;;;;;;;5134939;27;20438;-76
2022/04/21 15:10:40;;;;;;;2.50;2.23;;;;;;;;;;5131257;27;20457;-75
2022/04/21 15:13:08;;;;;;;4.87;2.90;;;;;;;;;;5127377;27;20410;-77
2022/04/21 15:15:35;;;;;;;3.70;3.10;;;;;;;;;;5129774;27;20963;-76
2022/04/21 15:18:02;;;;;;;3.43;2.80;;;;;;;;;;5130665;27;20794;-75
2022/04/21 15:20:31;;;;;;;5.73;2.80;;;;;;;;;;5131026;27;20438;-76
2022/04/21 15:22:59;;;;;;;3.27;2.83;;;;;;;;;;5132607;28;20409;-76
2022/04/21 15:25:26;;;;;;;8.33;3.30;;;;;;;;;;5132152;28;20471;-76
2022/04/21 15:27:54;;;;;;;4.37;2.83;;;;;;;;;;5130895;28;20426;-76
2022/04/21 15:30:21;;;;;;;4.00;2.73;;;;;;;;;;5127844;28;20413;-76
2022/04/21 15:32:48;;;;;;;5.73;2.90;;;;;;;;;;5127852;28;20447;-76
2022/04/21 15:35:15;;;;;;;3.40;2.60;;;;;;;;;;5132319;28;20776;-76
2022/04/21 15:37:44;;;;;;;3.40;2.93;;;;;;;;;;5132273;28;20511;-75
2022/04/21 15:40:11;;;;;;;3.83;3.43;;;;;;;;;;5132326;28;20438;-76
2022/04/21 15:42:39;;;;;;;5.07;2.60;;;;;;;;;;5132775;28;20789;-76
2022/04/21 15:45:06;;;;;;;5.93;3.47;;;;;;;;;;5132860;28;20425;-75
2022/04/21 15:47:34;;;;;;;4.37;3.23;;;;;;;;;;5134087;28;20486;-75
2022/04/21 15:50:01;;;;;;;5.00;3.17;;;;;;;;;;5133059;28;20895;-75
2022/04/21 15:52:28;;;;;;;3.50;3.10;;;;;;;;;;5127646;28;20425;-75
2022/04/21 16:00:19;;;;;;;4.60;3.83;;;;;;;;;;5131671;28;20743;-76
2022/04/21 16:02:46;;;;;;;4.20;3.20;;;;;;;;;;5132183;28;20477;-76
2022/04/21 16:05:14;;;;;;;6.57;2.80;;;;;;;;;;5132595;28;20446;-75
2022/04/21 16:07:41;;;;;;;3.53;2.47;;;;;;;;;;5132502;28;20827;-75
2022/04/21 16:10:10;;;;;;;2.67;2.47;;;;;;;;;;5133830;28;20437;-76
2022/04/21 16:12:37;;;;;;;4.87;3.43;;;;;;;;;;5134899;27;20429;-76